Time;durP1;ratioP1;P1;durP2;ratioP2;P2;SDS_P1;SDS_P2;PMS_P1;PMS_P2;Temp;Humidity;BMP_temperature;BMP_pressure;BME280_temperature;BME280_humidity;BME280_pressure;Samples;Min_cycle;Max_cycle;Signal;HPM_P1;HPM_P2
2022/10/09 00:00:08;;;;;;;20.33;1.83;;;34.70;54.90;;;;;;5064223;28;20082;-63
2022/10/09 00:02:35;;;;;;;6.97;2.00;;;34.60;46.00;;;;;;5065322;28;20047;-66
2022/10/09 00:05:01;;;;;;;10.85;1.63;;;34.60;48.70;;;;;;5065883;27;20057;-66
2022/10/09 00:07:27;;;;;;;7.97;1.73;;;34.50;47.20;;;;;;5067477;28;20077;-65
2022/10/09 00:09:54;;;;;;;7.93;1.70;;;34.50;47.10;;;;;;5046855;28;20060;-68
2022/10/09 00:12:20;;;;;;;8.93;1.48;;;34.30;48.50;;;;;;5057720;28;20702;-66
2022/10/09 00:14:46;;;;;;;12.30;1.90;;;34.30;47.90;;;;;;5050346;28;20100;-68
2022/10/09 00:17:13;;;;;;;11.25;1.70;;;34.20;46.50;;;;;;5078993;28;20070;-64
2022/10/09 00:19:39;;;;;;;8.73;1.50;;;34.30;46.30;;;;;;5033652;28;20018;-66
2022/10/09 00:22:06;;;;;;;7.78;1.40;;;34.20;48.10;;;;;;5056629;28;20154;-67
2022/10/09 00:24:32;;;;;;;4.57;1.33;;;34.10;46.10;;;;;;5043488;27;20083;-68
2022/10/09 00:26:58;;;;;;;4.30;1.02;;;34.00;45.30;;;;;;5047717;28;20112;-67
2022/10/09 00:29:25;;;;;;;26.63;2.38;;;33.90;46.20;;;;;;5075734;28;20546;-66
2022/10/09 00:31:51;;;;;;;17.52;1.60;;;33.80;46.00;;;;;;5054434;28;20103;-67
2022/10/09 00:34:17;;;;;;;11.52;1.52;;;33.70;48.10;;;;;;5048215;28;20073;-67
2022/10/09 00:36:44;;;;;;;17.58;2.25;;;33.60;47.00;;;;;;5053070;28;20109;-65
2022/10/09 00:39:10;;;;;;;13.60;2.15;;;33.60;47.20;;;;;;5050509;27;20066;-67
2022/10/09 00:41:36;;;;;;;10.40;1.80;;;33.50;47.40;;;;;;5070726;28;20093;-67
2022/10/09 00:44:41;;;;;;;12.05;2.10;;;33.40;46.60;;;;;;5079428;28;20511;-66
2022/10/09 00:47:15;;;;;;;25.85;2.92;;;33.30;46.20;;;;;;5056392;28;20077;-67
2022/10/09 00:49:42;;;;;;;25.75;2.85;;;33.20;70.10;;;;;;5040163;28;20205;-64
2022/10/09 00:52:09;;;;;;;36.35;3.25;;;33.20;63.80;;;;;;5065532;28;20194;-69
2022/10/09 00:54:39;;;;;;;17.85;2.63;;;33.20;47.90;;;;;;5068183;28;20019;-64
2022/10/09 00:57:06;;;;;;;15.32;2.13;;;33.20;75.70;;;;;;5049998;28;20069;-63
2022/10/09 00:59:33;;;;;;;10.00;2.10;;;33.00;75.20;;;;;;5060637;28;20106;-65
2022/10/09 01:02:00;;;;;;;26.30;7.38;;;32.70;73.80;;;;;;5050056;28;20151;-67
2022/10/09 01:04:26;;;;;;;19.83;4.95;;;32.80;75.90;;;;;;5062622;28;20076;-68
2022/10/09 01:07:18;;;;;;;92.43;6.05;;;32.90;50.60;;;;;;5062429;28;20395;-71
2022/10/09 01:10:01;;;;;;;25.75;3.40;;;32.80;48.80;;;;;;5064202;28;20081;-65
2022/10/09 01:12:33;;;;;;;20.85;2.60;;;32.40;60.00;;;;;;5074228;22;20148;-66
2022/10/09 01:15:18;;;;;;;24.70;2.97;;;32.50;75.30;;;;;;4928925;29;20117;-64
2022/10/09 01:18:16;;;;;;;18.30;3.00;;;32.60;48.30;;;;;;4930700;29;20102;-65
2022/10/09 01:20:56;;;;;;;9.98;2.53;;;32.70;48.70;;;;;;4929426;29;20071;-65
2022/10/09 01:23:50;;;;;;;14.65;4.90;;;32.30;76.90;;;;;;4928062;28;20135;-61
2022/10/09 01:26:45;;;;;;;18.90;3.83;;;32.40;75.20;;;;;;4933437;28;20487;-64
2022/10/09 01:29:14;;;;;;;20.33;4.20;;;32.40;47.20;;;;;;4929951;29;20036;-65
2022/10/09 01:31:44;;;;;;;27.23;3.95;;;32.40;48.00;;;;;;4928755;29;20100;-64
2022/10/09 01:34:13;;;;;;;20.42;5.13;;;32.30;48.00;;;;;;4932192;28;20031;-63
2022/10/09 01:36:41;;;;;;;11.55;6.65;;;32.20;71.50;;;;;;4929217;29;20030;-67
2022/10/09 01:39:10;;;;;;;21.63;5.40;;;34.00;50.10;;;;;;4936924;29;20020;-67
2022/10/09 01:41:37;;;;;;;22.50;4.93;;;32.10;78.80;;;;;;4937218;29;20032;-64
2022/10/09 01:44:03;;;;;;;17.88;4.50;;;;;;;;;;4929572;29;20031;-65
2022/10/09 01:46:31;;;;;;;11.20;3.38;;;31.90;75.30;;;;;;4929891;28;20035;-65
2022/10/09 01:49:12;;;;;;;15.55;4.15;;;32.10;78.00;;;;;;4929929;29;20028;-64
2022/10/09 01:52:02;;;;;;;16.58;3.75;;;34.70;50.10;;;;;;4929235;29;20032;-64
2022/10/09 01:54:43;;;;;;;26.85;4.53;;;31.90;49.10;;;;;;4938747;28;20067;-64
2022/10/09 01:57:13;;;;;;;31.33;4.88;;;31.90;49.50;;;;;;4938793;28;20075;-66
2022/10/09 01:59:43;;;;;;;25.13;5.20;;;31.90;49.50;;;;;;4930043;29;20087;-68
2022/10/09 02:02:10;;;;;;;25.20;5.25;;;31.90;50.10;;;;;;4930667;29;20091;-65
2022/10/09 02:04:41;;;;;;;33.30;5.25;;;31.90;79.80;;;;;;4932118;29;20079;-65
2022/10/09 02:07:08;;;;;;;25.30;5.30;;;32.10;68.90;;;;;;4937043;29;20133;-67
2022/10/09 02:09:36;;;;;;;32.83;5.85;;;31.80;49.00;;;;;;4934831;29;20025;-70
2022/10/09 02:12:07;;;;;;;46.85;15.85;;;31.80;47.90;;;;;;4933665;29;20086;-65
2022/10/09 02:14:34;;;;;;;62.25;39.17;;;31.70;48.70;;;;;;4933751;29;20031;-65
2022/10/09 02:17:17;;;;;;;70.13;33.38;;;31.70;47.90;;;;;;4931549;29;20078;-64
2022/10/09 02:19:50;;;;;;;41.05;21.27;;;31.70;48.30;;;;;;4931901;29;20071;-64
2022/10/09 02:22:35;;;;;;;45.65;18.92;;;31.70;48.20;;;;;;4931244;29;20129;-65
2022/10/09 02:25:05;;;;;;;38.03;10.05;;;31.70;50.00;;;;;;4932128;29;20123;-65
2022/10/09 02:27:32;;;;;;;33.88;7.45;;;31.60;48.70;;;;;;4931797;28;20111;-63
2022/10/09 02:30:00;;;;;;;38.38;9.25;;;31.60;48.70;;;;;;4931283;28;20444;-64
2022/10/09 02:32:26;;;;;;;48.55;16.83;;;31.60;48.90;;;;;;4931054;29;20110;-62
2022/10/09 02:34:53;;;;;;;69.63;32.78;;;31.60;49.70;;;;;;4931775;29;20075;-64
2022/10/09 02:37:19;;;;;;;61.22;28.38;;;31.60;49.90;;;;;;4931818;29;20137;-65
2022/10/09 02:39:46;;;;;;;57.08;28.67;;;31.50;50.20;;;;;;4933014;28;21275;-64
2022/10/09 02:42:12;;;;;;;55.53;30.10;;;31.60;50.40;;;;;;4929347;29;20196;-67
2022/10/09 02:44:39;;;;;;;27.48;9.27;;;31.50;50.60;;;;;;4932974;29;20028;-66
2022/10/09 02:47:05;;;;;;;34.65;20.30;;;31.50;50.50;;;;;;4931320;29;20086;-65
2022/10/09 02:49:32;;;;;;;26.67;9.00;;;;;;;;;;4931384;29;20107;-65
2022/10/09 02:51:58;;;;;;;25.13;7.00;;;31.00;49.90;;;;;;4931327;29;20028;-66
2022/10/09 02:54:24;;;;;;;19.23;4.78;;;31.40;51.00;;;;;;4931082;29;20534;-63
2022/10/09 02:56:51;;;;;;;16.58;4.05;;;31.40;51.00;;;;;;4933600;28;20076;-66
2022/10/09 02:59:17;;;;;;;23.52;4.32;;;31.40;51.70;;;;;;4932384;29;20090;-64
2022/10/09 03:01:43;;;;;;;28.13;4.07;;;31.40;51.20;;;;;;4931814;29;20091;-65
2022/10/09 03:04:10;;;;;;;28.55;3.85;;;31.50;92.70;;;;;;4930902;29;20170;-65
2022/10/09 03:06:36;;;;;;;35.00;7.93;;;;;;;;;;4931383;29;20502;-67
2022/10/09 03:09:03;;;;;;;48.30;21.45;;;31.20;85.40;;;;;;4932146;28;20107;-66
2022/10/09 03:11:30;;;;;;;23.67;7.53;;;31.30;86.40;;;;;;4928959;29;20081;-65
2022/10/09 03:13:56;;;;;;;30.13;7.72;;;;;;;;;;4930311;29;20051;-66
2022/10/09 03:16:24;;;;;;;34.40;12.90;;;31.10;87.50;;;;;;4930387;29;20150;-65
2022/10/09 03:18:51;;;;;;;31.52;11.68;;;31.30;62.60;;;;;;4929986;28;20032;-66
2022/10/09 03:21:20;;;;;;;35.40;7.93;;;31.20;50.90;;;;;;4932351;28;20034;-68
2022/10/09 03:23:47;;;;;;;45.35;22.33;;;31.20;51.40;;;;;;4934051;28;20079;-64
2022/10/09 03:26:17;;;;;;;29.33;15.75;;;31.20;51.40;;;;;;4930037;29;20075;-65
2022/10/09 03:28:49;;;;;;;30.90;9.95;;;31.20;51.40;;;;;;4933780;28;20106;-65
2022/10/09 03:31:17;;;;;;;26.30;5.30;;;31.10;51.60;;;;;;4930914;29;20094;-65
2022/10/09 03:33:44;;;;;;;23.05;3.70;;;31.10;51.50;;;;;;4930195;29;20071;-64
2022/10/09 03:36:10;;;;;;;18.95;3.70;;;31.10;51.80;;;;;;4930730;29;20477;-66
2022/10/09 03:38:37;;;;;;;17.33;3.63;;;31.10;59.20;;;;;;4930820;29;20090;-66
2022/10/09 03:41:05;;;;;;;17.40;3.28;;;31.40;60.10;;;;;;4928963;29;20019;-67
2022/10/09 03:43:32;;;;;;;21.10;3.90;;;31.00;51.70;;;;;;4928330;29;20407;-66
2022/10/09 03:45:59;;;;;;;19.02;3.08;;;31.00;51.70;;;;;;4929392;29;20158;-67
2022/10/09 03:48:25;;;;;;;19.10;3.67;;;30.60;77.00;;;;;;4931301;29;20523;-63
2022/10/09 03:50:51;;;;;;;22.23;4.05;;;31.10;53.10;;;;;;4929455;29;20046;-61
2022/10/09 03:53:18;;;;;;;25.70;3.63;;;;;;;;;;4929825;29;20629;-63
2022/10/09 03:55:44;;;;;;;19.95;3.53;;;31.00;91.40;;;;;;4930586;29;20471;-58
2022/10/09 03:58:11;;;;;;;13.77;3.42;;;31.40;88.70;;;;;;4929944;29;20024;-59
2022/10/09 04:00:37;;;;;;;22.10;3.75;;;31.40;66.40;;;;;;4930640;29;20023;-61
2022/10/09 04:03:03;;;;;;;25.13;3.80;;;30.40;74.90;;;;;;4930736;29;20032;-62
2022/10/09 04:05:33;;;;;;;13.93;3.05;;;31.00;93.80;;;;;;4929019;29;20031;-58
2022/10/09 04:08:00;;;;;;;30.20;4.20;;;30.90;56.80;;;;;;4929829;29;20026;-61
2022/10/09 04:10:26;;;;;;;28.85;5.07;;;;;;;;;;4930276;29;20099;-61
2022/10/09 04:12:53;;;;;;;17.67;4.90;;;30.80;53.40;;;;;;4929180;29;20050;-62
2022/10/09 04:15:19;;;;;;;34.47;5.60;;;30.90;53.80;;;;;;4928935;29;20067;-63
2022/10/09 04:17:46;;;;;;;33.55;6.63;;;31.10;60.40;;;;;;4929156;29;20076;-64
2022/10/09 04:20:12;;;;;;;41.92;8.80;;;31.00;55.40;;;;;;4928909;29;20062;-62
2022/10/09 04:22:39;;;;;;;35.95;8.10;;;30.70;53.50;;;;;;4927898;29;20027;-60
2022/10/09 04:25:05;;;;;;;36.60;7.63;;;30.70;54.30;;;;;;4929652;29;20124;-61
2022/10/09 04:27:32;;;;;;;30.85;7.40;;;30.70;96.00;;;;;;4928961;29;20166;-62
2022/10/09 04:29:58;;;;;;;45.53;8.15;;;30.30;93.40;;;;;;4928830;29;20024;-60
2022/10/09 04:32:25;;;;;;;45.95;8.55;;;;;;;;;;4930244;29;20042;-61
2022/10/09 04:34:51;;;;;;;35.47;9.85;;;30.60;93.30;;;;;;4928652;29;20462;-58
2022/10/09 04:37:18;;;;;;;43.75;11.55;;;;;;;;;;4929633;29;20028;-61
2022/10/09 04:39:44;;;;;;;37.80;12.52;;;30.30;64.90;;;;;;4928232;29;20386;-61
2022/10/09 04:42:10;;;;;;;40.97;12.50;;;30.40;53.90;;;;;;4924452;29;20075;-63
2022/10/09 04:44:37;;;;;;;40.92;11.70;;;30.40;60.90;;;;;;4923638;28;20142;-63
2022/10/09 04:47:03;;;;;;;38.95;10.27;;;;;;;;;;4925841;29;20028;-62
2022/10/09 04:49:30;;;;;;;31.92;12.38;;;30.30;58.30;;;;;;4927493;29;20019;-63
2022/10/09 04:51:57;;;;;;;38.35;12.10;;;30.30;92.40;;;;;;4926861;29;20078;-62
2022/10/09 04:54:23;;;;;;;56.22;12.85;;;;;;;;;;4927114;29;20028;-58
2022/10/09 04:56:50;;;;;;;50.45;14.02;;;;;;;;;;4929045;28;20024;-60
2022/10/09 04:59:16;;;;;;;44.67;12.70;;;30.20;61.40;;;;;;4928508;29;20070;-63
2022/10/09 05:01:42;;;;;;;29.85;10.75;;;30.20;55.80;;;;;;4930047;29;20069;-61
2022/10/09 05:04:09;;;;;;;32.95;10.07;;;30.20;55.50;;;;;;4929411;29;20086;-63
2022/10/09 05:06:35;;;;;;;29.50;8.25;;;;;;;;;;4929123;29;20170;-63
2022/10/09 05:09:02;;;;;;;35.55;8.90;;;30.10;70.50;;;;;;4928205;29;20031;-63
2022/10/09 05:11:28;;;;;;;32.38;8.55;;;30.30;55.10;;;;;;4929641;29;20079;-62
2022/10/09 05:13:56;;;;;;;40.70;7.80;;;30.10;90.60;;;;;;4928843;28;20118;-61
2022/10/09 05:16:26;;;;;;;47.28;8.18;;;30.10;55.80;;;;;;4929052;29;20410;-62
2022/10/09 05:18:55;;;;;;;39.13;8.13;;;30.10;56.00;;;;;;4929185;29;20584;-62
2022/10/09 05:21:21;;;;;;;37.60;9.18;;;;;;;;;;4927409;28;20079;-61
2022/10/09 05:23:48;;;;;;;32.15;8.57;;;30.10;54.80;;;;;;4928844;29;20039;-58
2022/10/09 05:26:17;;;;;;;22.48;7.50;;;;;;;;;;4928580;29;20061;-64
2022/10/09 05:28:44;;;;;;;30.15;7.63;;;30.00;55.80;;;;;;4929800;29;20024;-65
2022/10/09 05:31:20;;;;;;;37.25;8.10;;;30.00;67.30;;;;;;4928006;29;20441;-63
2022/10/09 05:33:46;;;;;;;36.72;7.82;;;;;;;;;;4928757;29;20386;-60
2022/10/09 05:36:13;;;;;;;34.33;7.85;;;29.90;57.30;;;;;;4932423;29;20394;-56
2022/10/09 05:38:39;;;;;;;34.70;7.45;;;30.10;97.10;;;;;;4932461;29;20098;-61
2022/10/09 05:41:09;;;;;;;36.80;8.20;;;29.80;62.90;;;;;;4932625;29;20032;-63
2022/10/09 05:43:40;;;;;;;33.70;7.93;;;29.80;63.10;;;;;;4932150;29;20043;-60
2022/10/09 05:46:08;;;;;;;92.50;11.13;;;29.70;61.00;;;;;;4929750;29;20058;-60
2022/10/09 05:48:35;;;;;;;156.60;13.90;;;29.60;57.70;;;;;;4931457;29;20107;-61
2022/10/09 05:51:18;;;;;;;187.85;14.23;;;29.00;86.70;;;;;;4931120;29;20165;-63
2022/10/09 05:53:46;;;;;;;263.60;18.40;;;29.30;71.40;;;;;;4931445;28;20054;-56
2022/10/09 05:56:13;;;;;;;253.73;18.17;;;;;;;;;;4931564;29;20035;-58
2022/10/09 05:58:40;;;;;;;158.90;12.75;;;29.30;65.40;;;;;;4931296;29;20085;-59
2022/10/09 06:01:07;;;;;;;125.07;8.63;;;;;;;;;;4931171;29;20507;-62
2022/10/09 06:03:37;;;;;;;127.22;8.38;;;29.80;67.00;;;;;;4932060;29;20028;-60
2022/10/09 06:06:07;;;;;;;113.55;8.75;;;29.50;68.90;;;;;;4931504;28;20035;-58
2022/10/09 06:08:35;;;;;;;101.55;6.78;;;29.40;66.60;;;;;;4929405;29;20044;-58
2022/10/09 06:11:10;;;;;;;105.22;7.03;;;29.20;62.00;;;;;;4931368;29;20455;-55
2022/10/09 06:13:36;;;;;;;81.50;6.78;;;29.10;62.70;;;;;;4930931;29;20111;-56
2022/10/09 06:16:03;;;;;;;77.05;6.20;;;;;;;;;;4930190;29;20020;-56
2022/10/09 06:18:29;;;;;;;56.47;5.43;;;;;;;;;;4930497;29;20093;-54
2022/10/09 06:20:58;;;;;;;74.95;4.97;;;29.10;62.70;;;;;;4930295;29;20028;-55
2022/10/09 06:23:26;;;;;;;60.72;4.65;;;29.10;63.30;;;;;;4930689;29;20133;-59
2022/10/09 06:25:54;;;;;;;46.33;5.20;;;29.00;63.70;;;;;;4930543;29;20066;-56
2022/10/09 06:28:21;;;;;;;62.90;4.45;;;28.90;90.10;;;;;;4931444;29;20035;-54
2022/10/09 06:30:48;;;;;;;46.78;5.28;;;29.10;64.40;;;;;;4930159;29;20069;-58
2022/10/09 06:33:14;;;;;;;43.92;4.25;;;29.20;64.40;;;;;;4930593;29;20087;-59
2022/10/09 06:35:41;;;;;;;37.03;4.60;;;28.80;65.20;;;;;;4930237;28;20766;-57
2022/10/09 06:38:08;;;;;;;49.47;4.22;;;28.50;66.10;;;;;;4930349;29;20159;-55
2022/10/09 06:40:35;;;;;;;58.95;4.18;;;28.50;67.10;;;;;;4931084;29;20092;-59
2022/10/09 06:43:03;;;;;;;59.28;5.22;;;28.50;66.80;;;;;;4931103;29;20226;-61
2022/10/09 06:45:29;;;;;;;57.78;4.35;;;28.60;66.60;;;;;;4927222;29;20087;-59
2022/10/09 06:47:56;;;;;;;34.65;2.75;;;28.60;66.10;;;;;;4929185;29;20063;-57
2022/10/09 06:50:23;;;;;;;38.75;2.70;;;28.50;66.00;;;;;;4930478;29;20581;-55
2022/10/09 06:52:49;;;;;;;45.83;3.95;;;28.40;66.40;;;;;;4930250;29;20545;-60
2022/10/09 06:55:16;;;;;;;33.92;3.00;;;28.30;66.90;;;;;;4931344;29;20076;-56
2022/10/09 06:57:42;;;;;;;25.40;3.22;;;28.10;67.30;;;;;;4931440;28;20101;-58
2022/10/09 07:00:09;;;;;;;21.25;2.22;;;28.10;67.50;;;;;;4930184;28;20083;-57
2022/10/09 07:02:36;;;;;;;22.02;2.35;;;28.20;67.20;;;;;;4930698;29;20083;-58
2022/10/09 07:05:03;;;;;;;16.58;1.70;;;28.20;66.90;;;;;;4929650;29;20486;-59
2022/10/09 07:07:29;;;;;;;24.33;1.85;;;28.10;65.90;;;;;;4929908;29;20126;-57
2022/10/09 07:09:56;;;;;;;6.75;1.42;;;28.10;65.20;;;;;;4929496;29;20081;-59
2022/10/09 07:12:22;;;;;;;12.20;2.08;;;28.10;65.00;;;;;;4931143;29;20115;-57
2022/10/09 07:14:48;;;;;;;15.30;3.97;;;28.00;64.80;;;;;;4930538;29;20076;-59
2022/10/09 07:17:15;;;;;;;14.68;4.78;;;28.00;64.80;;;;;;4929672;29;20072;-60
2022/10/09 07:19:41;;;;;;;16.75;3.15;;;28.00;65.00;;;;;;4929739;29;20079;-56
2022/10/09 07:22:10;;;;;;;14.38;2.40;;;27.90;64.70;;;;;;4929919;29;20106;-58
2022/10/09 07:24:36;;;;;;;10.25;2.08;;;28.10;64.80;;;;;;4930557;28;20341;-60
2022/10/09 07:27:03;;;;;;;9.88;2.10;;;28.20;64.70;;;;;;4930090;29;20162;-59
2022/10/09 07:29:29;;;;;;;13.38;2.22;;;28.10;64.90;;;;;;4930372;29;20614;-58
2022/10/09 07:31:55;;;;;;;12.88;2.83;;;28.10;65.10;;;;;;4945055;28;20463;-56
2022/10/09 07:34:22;;;;;;;14.60;2.67;;;28.20;64.80;;;;;;4930611;29;20412;-57
2022/10/09 07:36:48;;;;;;;15.57;3.20;;;28.10;65.10;;;;;;4930168;29;20498;-58
2022/10/09 07:39:18;;;;;;;16.35;3.15;;;28.10;64.80;;;;;;4930363;29;20531;-57
2022/10/09 07:41:46;;;;;;;16.48;3.47;;;28.10;65.00;;;;;;4930769;29;20087;-56
2022/10/09 07:44:12;;;;;;;13.23;3.65;;;28.00;64.50;;;;;;4929936;29;20091;-55
2022/10/09 07:46:39;;;;;;;12.20;3.42;;;27.90;64.20;;;;;;4927143;29;20174;-58
2022/10/09 07:49:05;;;;;;;17.13;3.90;;;27.90;64.20;;;;;;4929216;29;20122;-57
2022/10/09 07:51:32;;;;;;;16.17;3.42;;;27.90;63.60;;;;;;4929799;29;20514;-58
2022/10/09 07:54:00;;;;;;;10.02;2.92;;;27.90;63.70;;;;;;4929869;29;20117;-56
2022/10/09 07:56:29;;;;;;;11.15;3.25;;;27.90;63.60;;;;;;4929529;29;20098;-58
2022/10/09 07:59:02;;;;;;;12.18;3.20;;;27.90;62.30;;;;;;4930242;29;20062;-57
2022/10/09 08:01:29;;;;;;;13.27;3.47;;;27.90;62.40;;;;;;4929210;29;20099;-57
2022/10/09 08:03:57;;;;;;;16.42;3.30;;;27.90;62.50;;;;;;4929528;29;20078;-60
2022/10/09 08:06:23;;;;;;;9.13;2.80;;;;;;;;;;4929834;28;20597;-57
2022/10/09 08:08:51;;;;;;;13.20;2.95;;;;;;;;;;4929498;29;20102;-59
2022/10/09 08:11:18;;;;;;;14.68;2.90;;;27.70;72.20;;;;;;4930131;29;20401;-61
2022/10/09 08:13:46;;;;;;;16.63;2.30;;;27.90;80.00;;;;;;4929275;29;20567;-59
2022/10/09 08:16:13;;;;;;;8.55;1.55;;;27.80;74.60;;;;;;4928575;29;20031;-54
2022/10/09 08:18:39;;;;;;;8.98;1.70;;;;;;;;;;4928900;29;20032;-56
2022/10/09 08:21:17;;;;;;;15.15;1.42;;;27.80;73.60;;;;;;4929947;29;20059;-56
2022/10/09 08:23:54;;;;;;;17.25;1.90;;;27.20;77.20;;;;;;4930069;29;20038;-58
2022/10/09 08:26:23;;;;;;;7.28;1.85;;;27.70;81.60;;;;;;4929589;29;20027;-55
2022/10/09 08:28:56;;;;;;;15.00;2.00;;;28.10;88.30;;;;;;4928568;29;20027;-57
2022/10/09 08:31:24;;;;;;;17.83;1.95;;;28.00;86.20;;;;;;4928769;29;20042;-55
2022/10/09 08:33:57;;;;;;;8.93;1.50;;;27.80;79.80;;;;;;4928044;29;20020;-57
2022/10/09 08:36:25;;;;;;;13.40;1.27;;;27.90;85.80;;;;;;4928731;29;20028;-55
2022/10/09 08:38:52;;;;;;;12.10;1.40;;;;;;;;;;4928981;29;20111;-56
2022/10/09 08:41:48;;;;;;;9.80;1.15;;;28.00;90.90;;;;;;4929340;29;20027;-59
2022/10/09 08:44:28;;;;;;;13.32;1.25;;;28.00;60.30;;;;;;4941097;28;20503;-58
2022/10/09 08:47:25;;;;;;;17.70;1.52;;;28.00;83.10;;;;;;4942266;28;20130;-56
2022/10/09 08:50:18;;;;;;;15.83;1.60;;;27.90;82.40;;;;;;4927456;29;20059;-59
2022/10/09 08:53:07;;;;;;;32.90;1.73;;;28.20;75.80;;;;;;4928328;29;20394;-59
2022/10/09 08:55:53;;;;;;;11.98;1.90;;;27.90;62.40;;;;;;4928901;29;20387;-59
2022/10/09 08:58:21;;;;;;;16.88;3.78;;;28.10;66.70;;;;;;4928739;29;20367;-59
2022/10/09 09:01:05;;;;;;;26.98;5.75;;;28.40;66.20;;;;;;4927805;29;20028;-55
2022/10/09 09:03:50;;;;;;;27.38;7.05;;;28.20;65.10;;;;;;4929832;29;20055;-58
2022/10/09 09:06:16;;;;;;;25.52;8.15;;;;;;;;;;4928078;28;20027;-55
2022/10/09 09:08:59;;;;;;;30.50;7.40;;;28.80;98.80;;;;;;4928458;29;20028;-57
2022/10/09 09:11:44;;;;;;;28.13;7.60;;;28.50;96.10;;;;;;4928591;29;20114;-58
2022/10/09 09:15:05;;;;;;;23.13;6.80;;;28.10;72.70;;;;;;4927338;29;20048;-58
2022/10/09 09:17:54;;;;;;;19.42;5.88;;;27.50;57.70;;;;;;4993073;28;20026;-56
2022/10/09 09:20:29;;;;;;;22.67;5.45;;;28.10;97.00;;;;;;4929320;28;20056;-55
2022/10/09 09:23:01;;;;;;;16.75;4.75;;;;;;;;;;4927683;29;20119;-54
2022/10/09 09:25:30;;;;;;;12.18;3.38;;;;;;;;;;4928709;29;20028;-58
2022/10/09 09:28:11;;;;;;;20.27;2.83;;;;;;;;;;4926720;29;20067;-57
2022/10/09 09:30:46;;;;;;;17.05;2.55;;;28.20;68.20;;;;;;4928419;29;20032;-57
2022/10/09 09:33:43;;;;;;;20.88;2.42;;;28.10;61.90;;;;;;4928505;29;20032;-57
2022/10/09 09:36:23;;;;;;;16.27;2.10;;;28.20;59.40;;;;;;4937772;28;20036;-56
2022/10/09 09:38:51;;;;;;;22.40;2.20;;;28.40;97.50;;;;;;4927803;29;20023;-60
2022/10/09 09:41:21;;;;;;;27.15;2.95;;;28.20;97.40;;;;;;4927645;29;20039;-55
2022/10/09 09:43:47;;;;;;;28.25;2.13;;;27.70;96.20;;;;;;4926924;29;20383;-58
2022/10/09 09:46:22;;;;;;;30.73;2.58;;;28.10;62.30;;;;;;4926828;29;20059;-58
2022/10/09 09:48:49;;;;;;;27.67;2.28;;;;;;;;;;4925078;29;20030;-58
2022/10/09 09:51:20;;;;;;;35.53;2.50;;;28.20;67.00;;;;;;4927818;29;20046;-60
2022/10/09 09:53:47;;;;;;;35.40;2.88;;;;;;;;;;4928632;29;20082;-60
2022/10/09 09:56:15;;;;;;;25.55;1.88;;;28.20;97.10;;;;;;4926698;29;20483;-57
2022/10/09 09:58:49;;;;;;;30.90;1.88;;;28.30;60.30;;;;;;4928364;29;20045;-57
2022/10/09 10:01:25;;;;;;;35.83;2.88;;;28.10;97.20;;;;;;4927414;29;20034;-57
2022/10/09 10:03:57;;;;;;;41.35;2.83;;;28.50;98.50;;;;;;4927779;28;20027;-58
2022/10/09 10:06:30;;;;;;;20.15;2.53;;;28.00;65.10;;;;;;4927500;29;20032;-54
2022/10/09 10:09:14;;;;;;;21.65;2.85;;;29.10;95.60;;;;;;4928036;28;20031;-57
2022/10/09 10:12:02;;;;;;;18.75;1.90;;;28.20;60.70;;;;;;4926568;29;20039;-57
2022/10/09 10:14:30;;;;;;;25.80;1.88;;;28.10;95.00;;;;;;4927860;29;20096;-56
2022/10/09 10:16:59;;;;;;;31.30;2.55;;;27.80;97.20;;;;;;4927356;29;20024;-55
2022/10/09 10:19:37;;;;;;;35.42;2.88;;;28.00;62.00;;;;;;4927880;29;20024;-58
2022/10/09 10:22:06;;;;;;;22.58;2.38;;;28.20;96.30;;;;;;4930515;29;20027;-58
2022/10/09 10:24:43;;;;;;;21.48;3.03;;;27.40;85.00;;;;;;4930860;29;20048;-57
2022/10/09 10:27:25;;;;;;;18.58;2.55;;;27.60;70.40;;;;;;4930746;29;20031;-55
2022/10/09 10:29:56;;;;;;;13.82;2.53;;;27.20;94.00;;;;;;4930541;28;20407;-55
2022/10/09 10:32:38;;;;;;;15.15;3.08;;;27.00;95.20;;;;;;4930533;29;20166;-54
2022/10/09 10:35:18;;;;;;;26.27;3.80;;;27.20;62.90;;;;;;4930582;29;20110;-56
2022/10/09 10:38:06;;;;;;;18.40;3.88;;;27.20;63.20;;;;;;4929855;29;20155;-55
2022/10/09 10:40:57;;;;;;;21.60;4.63;;;26.60;74.10;;;;;;4929292;29;20210;-54
2022/10/09 10:43:39;;;;;;;19.48;4.28;;;27.30;89.60;;;;;;4936062;28;20094;-55
2022/10/09 10:46:27;;;;;;;17.95;4.05;;;27.00;65.40;;;;;;4931063;29;20073;-58
2022/10/09 10:48:53;;;;;;;15.13;4.05;;;27.10;86.30;;;;;;4928974;29;20047;-53
2022/10/09 10:51:25;;;;;;;22.83;4.30;;;27.40;77.50;;;;;;4925704;28;20120;-57
2022/10/09 10:54:25;;;;;;;17.83;4.97;;;26.80;64.40;;;;;;4931465;29;20031;-54
2022/10/09 10:57:17;;;;;;;12.73;3.72;;;26.90;65.50;;;;;;4930771;29;20067;-54
2022/10/09 11:00:07;;;;;;;16.08;3.10;;;26.70;62.90;;;;;;4930349;29;20035;-52
2022/10/09 11:02:58;;;;;;;11.35;3.50;;;26.80;63.40;;;;;;4929068;29;20103;-53
2022/10/09 11:05:27;;;;;;;15.13;3.17;;;;;;;;;;4930330;29;20545;-53
2022/10/09 11:08:18;;;;;;;12.75;2.83;;;27.10;96.70;;;;;;4931345;29;20035;-56
2022/10/09 11:11:17;;;;;;;11.98;2.72;;;27.30;98.80;;;;;;4930988;29;20429;-56
2022/10/09 11:13:56;;;;;;;8.60;2.05;;;26.90;99.90;;;;;;4930807;29;20040;-56
2022/10/09 11:16:37;;;;;;;6.00;1.58;;;26.30;74.30;;;;;;4929881;29;20019;-57
2022/10/09 11:19:37;;;;;;;8.60;1.75;;;26.70;90.20;;;;;;4929721;29;20054;-58
2022/10/09 11:22:21;;;;;;;12.45;1.98;;;26.60;65.70;;;;;;4929062;29;20139;-56
2022/10/09 11:24:54;;;;;;;6.50;1.80;;;26.70;65.90;;;;;;4930916;29;20072;-59
2022/10/09 11:27:26;;;;;;;9.45;1.90;;;26.70;66.10;;;;;;4929650;29;20092;-56
2022/10/09 11:30:03;;;;;;;11.27;2.03;;;26.80;66.10;;;;;;4930116;29;20088;-58
2022/10/09 11:32:54;;;;;;;6.13;1.90;;;26.80;66.60;;;;;;4930133;29;20091;-56
2022/10/09 11:35:22;;;;;;;16.52;2.67;;;27.70;96.80;;;;;;4928409;29;20511;-55
2022/10/09 11:38:32;;;;;;;13.27;2.45;;;26.60;99.20;;;;;;4929549;29;20126;-54
2022/10/09 11:40:59;;;;;;;10.27;3.10;;;26.50;68.80;;;;;;4928553;28;20519;-57
2022/10/09 11:43:25;;;;;;;13.10;2.45;;;26.40;69.10;;;;;;4929968;29;20080;-54
2022/10/09 11:46:11;;;;;;;8.43;2.30;;;26.30;69.50;;;;;;4930275;29;20111;-57
2022/10/09 11:48:44;;;;;;;8.65;2.13;;;26.70;93.40;;;;;;4930140;29;20075;-57
2022/10/09 11:51:13;;;;;;;7.32;2.05;;;26.40;83.10;;;;;;4925678;29;20085;-53
2022/10/09 11:53:40;;;;;;;11.02;2.40;;;26.00;99.90;;;;;;4930332;29;20052;-54
2022/10/09 11:56:18;;;;;;;12.40;2.20;;;26.40;81.20;;;;;;4929868;29;20027;-56
2022/10/09 11:58:56;;;;;;;10.68;2.42;;;26.20;68.90;;;;;;4930488;29;20527;-54
2022/10/09 12:01:28;;;;;;;10.68;2.80;;;26.10;70.00;;;;;;4929450;29;20108;-56
2022/10/09 12:04:04;;;;;;;11.38;2.70;;;25.90;70.00;;;;;;4929944;29;20213;-59
2022/10/09 12:06:32;;;;;;;6.70;2.30;;;25.70;92.40;;;;;;4928419;29;20024;-55
2022/10/09 12:09:06;;;;;;;10.18;2.50;;;25.80;96.70;;;;;;4929249;29;20024;-57
2022/10/09 12:11:34;;;;;;;10.98;2.10;;;25.50;99.90;;;;;;4928905;29;20084;-57
2022/10/09 12:14:03;;;;;;;11.60;2.05;;;25.70;99.90;;;;;;4929117;29;20056;-58
2022/10/09 12:16:43;;;;;;;6.75;1.80;;;25.50;75.50;;;;;;4929375;29;20069;-59
2022/10/09 12:19:19;;;;;;;4.68;1.73;;;25.80;72.80;;;;;;4929447;29;20547;-55
2022/10/09 12:22:11;;;;;;;13.07;1.90;;;25.80;72.40;;;;;;4929112;29;20095;-55
2022/10/09 12:24:42;;;;;;;17.25;2.30;;;26.10;86.30;;;;;;4929888;29;20163;-55
2022/10/09 12:27:36;;;;;;;38.53;3.28;;;25.80;78.40;;;;;;4928933;29;20082;-55
2022/10/09 12:30:07;;;;;;;9.43;1.83;;;25.70;80.30;;;;;;4929588;28;20064;-56
2022/10/09 12:32:59;;;;;;;6.32;1.42;;;26.30;91.40;;;;;;4929241;29;20077;-55
2022/10/09 12:35:46;;;;;;;6.80;1.60;;;25.80;72.90;;;;;;4967895;28;20339;-56
2022/10/09 12:38:28;;;;;;;9.75;1.70;;;25.60;79.20;;;;;;4928978;29;20424;-56
2022/10/09 12:40:58;;;;;;;11.30;1.50;;;25.70;83.10;;;;;;4928145;29;20034;-57
2022/10/09 12:43:25;;;;;;;9.50;1.70;;;25.50;90.60;;;;;;4927559;29;20026;-58
2022/10/09 12:45:53;;;;;;;10.70;1.70;;;25.80;80.20;;;;;;4929104;29;20060;-54
2022/10/09 12:48:24;;;;;;;6.03;1.35;;;24.90;72.60;;;;;;4928900;29;20035;-54
2022/10/09 12:50:51;;;;;;;7.70;1.40;;;26.00;76.30;;;;;;4927129;29;20127;-56
2022/10/09 12:53:21;;;;;;;9.95;1.80;;;26.30;99.60;;;;;;4925692;29;20058;-57
2022/10/09 12:55:54;;;;;;;9.73;1.30;;;25.70;72.50;;;;;;4928105;29;20090;-57
2022/10/09 12:58:28;;;;;;;4.35;1.23;;;26.50;99.90;;;;;;4929533;29;20027;-55
2022/10/09 13:00:58;;;;;;;3.67;1.25;;;25.80;79.80;;;;;;4928744;29;20047;-59
2022/10/09 13:03:24;;;;;;;5.38;1.67;;;25.80;71.70;;;;;;4928661;29;20127;-57
2022/10/09 13:05:51;;;;;;;4.00;1.50;;;25.70;71.30;;;;;;4928794;29;20068;-59
2022/10/09 13:08:28;;;;;;;12.75;1.80;;;26.20;75.80;;;;;;4928404;29;20100;-59